تهران, ایران

07:37 PM IRDT on ژوئیه 30, 2014 (GMT +0430)
Mehrabad International (OIII) Elev 3907 ft | 35.69 °N, 51.30 °E | Change Station

Current weather conditions updated 7 minutes ago

Partly Cloudy
ابرهاى پراكنده
90 °F
Feels Like 90 °F
N
7
باد متغير باد from SSE

Tomorrow is forecast to be Cooler than today.

امروز
High -- | Low -- °F
--% Chance of Precip.
دیروز
High -- | Low -- °F
Precip. -- در
6:10 AM 8:10 PM
Waxing Crescent, 12% visible
فشار 29.83 در
ديد 6.2 مايل، ميل (در برابر كيلومتر
ابری Few 4000 ft
قطره شبنم 48 °F
رطوبت 24%
بارش باران 0.00 در
برف عمیق Not available.
مادون قرمز 0 out of 12
Pollen Not available.
تمیزی هوا Not available.
Flu Activity Not available.
METAR OIII 301500Z 15006KT 9999 FEW040 32/09 Q1010 A2984 NOSIG

More Conditions Fewer Conditions

فشار 29.83 در
ديد 6.2 مايل، ميل (در برابر كيلومتر
ابری Few 4000 ft
قطره شبنم 48 °F
رطوبت 24%
بارش باران 0.00 در
برف عمیق Not available.
مادون قرمز 0 out of 12
Pollen Not available.
تمیزی هوا Not available.
Flu Activity Not available.
METAR OIII 301500Z 15006KT 9999 FEW040 32/09 Q1010 A2984 NOSIG

More Conditions Fewer Conditions

10-Day Weather Forecast

Almanac

ستاره شناسی

Jul. 30, 2014 Rise Set
وقت حقیقی 6:10 AM IRDT 8:10 PM IRDT
تاریک و روشن اجتماعی 5:42 AM IRDT 8:39 PM IRDT
تاریک روشن دریایی 5:08 AM IRDT 9:13 PM IRDT
شفق و فلق نجومی 4:31 AM IRDT 9:50 PM IRDT
ماه 9:12 AM IRDT 9:50 PM IRDT
میزان روشنایی روز 14h 56m
طول روز
14h 00m
Tomorrow will be 1m 38s shorter.
Waxing Crescent, 12% of the Moon is Illuminated
امروز
Waxing Crescent
Aug 3
ربع اول
Aug 10
ماه کامل
Aug 17
ربع آخر
Aug 25
New

Today's Extremes

Country Highs Country Lows

Community

WunderPhotos

Upload Photos

1,739,107 photos uploaded!

WunderBlogs® & News

By Dr. Jeff Masters
Director of Meteorology, Weather Underground
By Kari Strenfel
Meteorologist, Weather Underground
By Christopher C. Burt
Weather Historian, Weather Underground
July 30, 2014
July 30, 2014
July 30, 2014

Nearby

تمیزی هوا

Not available.

عمق برف

Not available.

Earthquake Activity

شهر Distance Mag. Time & Date
No recent earthquake activity has been reported nearby.
Minimum magnitude displayed is 2.5.

Coastal Water Temperatures

منطقه درجه حرارت
No Stations Reporting

Nearby Weather Stations

There are no personal weather stations in this area.